Terminal Aerodrome Forecast
Issued by NWS Cleveland, OH

Home | Current Version | Previous Version | Graphics & Text | Print | Product List | Glossary On
Versions: 1 2 3 4 5 6 7 8 9 10 11 12 13 14 15 16 17 18 19 20 21 22 23 24 25
000
FTUS41 KCLE 231400 AAA
TAFCLE
TAF AMD
KCLE 231458Z 2315/2418 29014G22KT P6SM VCSH SCT025 OVC040
      TEMPO 2315/2318 5SM -SHSN BKN025
     FM240000 31010KT P6SM OVC040
     FM240600 30010KT P6SM BKN040=

USA.gov is the U.S. government's official web portal to all federal, state and local government web resources and services.